| time (UTC) | temp F | wind direction | speed MPH | gust MPH | rain 1hr in | rain 24hr in | rain mn in | humidity % | barometer mb |
| 20260509141406 | 63 | 0 | 0.0 | 5.0 | 0.00 | 0.00 | 0.00 | 24 | 1006.3 |
| 20260509140406 | 61 | 0 | 0.0 | 2.0 | 0.00 | 0.00 | 0.00 | 26 | 1006.4 |
| 20260509135352 | 60 | 0 | 0.0 | 0.0 | 0.00 | 0.00 | 0.00 | 27 | 1006.4 |
| 20260509133221 | 56 | 0 | 0.0 | 0.0 | 0.00 | 0.00 | 0.00 | 32 | 1006.5 |
| 20260509132220 | 53 | 0 | 0.0 | 0.0 | 0.00 | 0.00 | 0.00 | 35 | 1006.4 |
| 20260509131235 | 51 | 0 | 0.0 | 0.0 | 0.00 | 0.00 | 0.00 | 36 | 1006.4 |
| 20260509130239 | 50 | 0 | 0.0 | 0.0 | 0.00 | 0.00 | 0.00 | 37 | 1006.3 |
| 20260509125208 | 49 | 0 | 0.0 | 0.0 | 0.00 | 0.00 | 0.00 | 37 | 1006.1 |
| 20260509124224 | 49 | 0 | 0.0 | 0.0 | 0.00 | 0.00 | 0.00 | 37 | 1005.9 |
| 20260509123208 | 48 | 0 | 0.0 | 0.0 | 0.00 | 0.00 | 0.00 | 38 | 1005.9 |
| 20260509122219 | 48 | 0 | 0.0 | 0.0 | 0.00 | 0.00 | 0.00 | 37 | 1005.7 |
| 20260509121231 | 48 | 0 | 0.0 | 1.0 | 0.00 | 0.00 | 0.00 | 37 | 1005.5 |
| 20260509120206 | 49 | 0 | 0.0 | 0.0 | 0.00 | 0.00 | 0.00 | 36 | 1005.4 |
| 20260509115219 | 49 | 0 | 0.0 | 0.0 | 0.00 | 0.00 | 0.00 | 36 | 1005.5 |
| 20260509114207 | 48 | 0 | 0.0 | 0.0 | 0.00 | 0.00 | 0.00 | 37 | 1005.3 |
| 20260509113230 | 49 | 0 | 0.0 | 0.0 | 0.00 | 0.00 | 0.00 | 36 | 1005.2 |
| 20260509112203 | 51 | 0 | 0.0 | 1.0 | 0.00 | 0.00 | 0.00 | 34 | 1005.1 |
| 20260509111138 | 50 | 0 | 0.0 | 0.0 | 0.00 | 0.00 | 0.00 | 35 | 1004.8 |
| 20260509110112 | 50 | 0 | 0.0 | 7.0 | 0.00 | 0.00 | 0.00 | 36 | 1004.9 |
| 20260509103946 | 50 | 0 | 0.0 | 0.0 | 0.00 | 0.00 | 0.00 | 35 | 1005.0 |
| 20260509102933 | 49 | 0 | 0.0 | 0.0 | 0.00 | 0.00 | 0.00 | 36 | 1005.1 |
| 20260509101928 | 49 | 0 | 0.0 | 0.0 | 0.00 | 0.00 | 0.00 | 36 | 1005.1 |
| 20260509100907 | 51 | 0 | 0.0 | 0.0 | 0.00 | 0.00 | 0.00 | 33 | 1005.2 |
| 20260509095910 | 52 | 0 | 0.0 | 0.0 | 0.00 | 0.00 | 0.00 | 33 | 1005.3 |
| 20260509094850 | 52 | 0 | 0.0 | 0.0 | 0.00 | 0.00 | 0.00 | 32 | 1005.4 |
| 20260509093835 | 52 | 0 | 0.0 | 0.0 | 0.00 | 0.00 | 0.00 | 32 | 1005.4 |
| 20260509092809 | 53 | 0 | 0.0 | 0.0 | 0.00 | 0.00 | 0.00 | 32 | 1005.4 |
| 20260509091744 | 52 | 0 | 0.0 | 0.0 | 0.00 | 0.00 | 0.00 | 33 | 1005.2 |
| 20260509090713 | 51 | 0 | 0.0 | 0.0 | 0.00 | 0.00 | 0.00 | 33 | 1005.2 |
| 20260509084547 | 52 | 0 | 0.0 | 0.0 | 0.00 | 0.00 | 0.00 | 33 | 1005.2 |
| 20260509083533 | 51 | 0 | 0.0 | 0.0 | 0.00 | 0.00 | 0.00 | 33 | 1005.1 |
| 20260509081344 | 51 | 0 | 0.0 | 0.0 | 0.00 | 0.00 | 0.00 | 33 | 1005.2 |
| 20260509072905 | 48 | 0 | 0.0 | 0.0 | 0.00 | 0.00 | 0.00 | 36 | 1005.3 |
| 20260509071901 | 48 | 0 | 0.0 | 1.0 | 0.00 | 0.00 | 0.00 | 35 | 1005.4 |
| 20260509070846 | 49 | 0 | 0.0 | 0.0 | 0.00 | 0.00 | 0.00 | 35 | 1005.5 |
| 20260509065850 | 49 | 0 | 0.0 | 0.0 | 0.00 | 0.00 | 0.00 | 33 | 1005.5 |
| 20260509064915 | 50 | 0 | 0.0 | 0.0 | 0.00 | 0.00 | 0.00 | 32 | 1005.5 |
| 20260509063920 | 52 | 0 | 0.0 | 0.0 | 0.00 | 0.00 | 0.00 | 31 | 1005.6 |
| 20260509062937 | 52 | 0 | 0.0 | 0.0 | 0.00 | 0.00 | 0.00 | 31 | 1005.7 |
| 20260509062000 | 53 | 0 | 0.0 | 0.0 | 0.00 | 0.00 | 0.00 | 30 | 1005.7 |
| 20260509055816 | 54 | 0 | 0.0 | 2.0 | 0.00 | 0.00 | 0.00 | 29 | 1005.7 |
| 20260509054812 | 54 | 0 | 0.0 | 3.0 | 0.00 | 0.00 | 0.00 | 30 | 1005.7 |
| 20260509053813 | 53 | 328 | 0.0 | 2.0 | 0.00 | 0.00 | 0.00 | 31 | 1005.8 |
| 20260509052834 | 51 | 328 | 0.0 | 1.0 | 0.00 | 0.00 | 0.00 | 32 | 1005.8 |
| 20260509051830 | 51 | 328 | 0.0 | 2.0 | 0.00 | 0.00 | 0.00 | 31 | 1005.8 |
| 20260509050808 | 53 | 334 | 0.0 | 0.0 | 0.00 | 0.00 | 0.00 | 29 | 1005.8 |
| 20260509045753 | 54 | 334 | 0.0 | 0.0 | 0.00 | 0.00 | 0.00 | 28 | 1005.7 |
| 20260509044729 | 55 | 334 | 0.0 | 0.0 | 0.00 | 0.00 | 0.00 | 28 | 1005.7 |
| 20260509042625 | 55 | 334 | 0.0 | 0.0 | 0.00 | 0.00 | 0.00 | 28 | 1005.7 |
| 20260509041615 | 56 | 334 | 0.0 | 0.0 | 0.00 | 0.00 | 0.00 | 28 | 1005.7 |
| 20260509040559 | 57 | 334 | 0.0 | 0.0 | 0.00 | 0.00 | 0.00 | 27 | 1005.6 |
| 20260509035530 | 57 | 334 | 0.0 | 0.0 | 0.00 | 0.00 | 0.00 | 27 | 1005.6 |
| 20260509034457 | 58 | 334 | 0.0 | 0.0 | 0.00 | 0.00 | 0.00 | 26 | 1005.4 |
| 20260509033429 | 58 | 334 | 0.0 | 0.0 | 0.00 | 0.00 | 0.00 | 25 | 1005.3 |
| 20260509031251 | 62 | 334 | 0.0 | 0.0 | 0.00 | 0.00 | 0.00 | 23 | 1005.2 |
| 20260509025132 | 64 | 0 | 0.0 | 2.0 | 0.00 | 0.00 | 0.00 | 22 | 1004.9 |
| 20260509024123 | 64 | 0 | 0.0 | 0.0 | 0.00 | 0.00 | 0.00 | 21 | 1004.7 |
| 20260509023148 | 65 | 0 | 0.0 | 0.0 | 0.00 | 0.00 | 0.00 | 21 | 1004.6 |
| 20260509022210 | 65 | 0 | 0.0 | 1.0 | 0.00 | 0.00 | 0.00 | 22 | 1004.6 |
| 20260509021216 | 66 | 0 | 0.0 | 0.0 | 0.00 | 0.00 | 0.00 | 21 | 1004.4 |
| 20260509020233 | 67 | 0 | 0.0 | 0.0 | 0.00 | 0.00 | 0.00 | 20 | 1004.3 |
| 20260509014124 | 70 | 0 | 0.0 | 12.0 | 0.00 | 0.00 | 0.00 | 19 | 1004.2 |
| 20260509013059 | 70 | 0 | 1.0 | 12.0 | 0.00 | 0.00 | 0.00 | 18 | 1004.1 |
| 20260509012102 | 71 | 0 | 1.0 | 8.0 | 0.00 | 0.00 | 0.00 | 18 | 1004.2 |
| 20260509011038 | 73 | 0 | 4.0 | 11.0 | 0.00 | 0.00 | 0.00 | 17 | 1004.2 |
| 20260509010027 | 73 | 0 | 4.0 | 13.0 | 0.00 | 0.00 | 0.00 | 18 | 1004.3 |
| 20260509003858 | 72 | 271 | 9.0 | 21.0 | 0.00 | 0.00 | 0.00 | 17 | 1004.2 |
| 20260509002914 | 74 | 0 | 7.0 | 24.0 | 0.00 | 0.00 | 0.00 | 17 | 1004.2 |
| 20260509001847 | 74 | 0 | 8.0 | 24.0 | 0.00 | 0.00 | 0.00 | 16 | 1004.2 |
| 20260509000841 | 75 | 0 | 6.0 | 15.0 | 0.00 | 0.00 | 0.00 | 15 | 1004.2 |
| 20260508235841 | 75 | 0 | 7.0 | 19.0 | 0.00 | 0.00 | 0.00 | 16 | 1004.3 |
| 20260508234829 | 74 | 269 | 11.0 | 22.0 | 0.00 | 0.00 | 0.00 | 16 | 1004.3 |
| 20260508230455 | 76 | 0 | 7.0 | 19.0 | 0.00 | 0.00 | 0.00 | 15 | 1004.3 |
| 20260508225427 | 76 | 0 | 15.0 | 22.0 | 0.00 | 0.00 | 0.00 | 16 | 1004.4 |
| 20260508224422 | 75 | 0 | 15.0 | 25.0 | 0.00 | 0.00 | 0.00 | 16 | 1004.4 |
| 20260508223401 | 76 | 0 | 16.0 | 25.0 | 0.00 | 0.00 | 0.00 | 15 | 1004.5 |
| 20260508222352 | 77 | 0 | 15.0 | 23.0 | 0.00 | 0.00 | 0.00 | 14 | 1004.4 |
| 20260508221348 | 76 | 0 | 16.0 | 26.0 | 0.00 | 0.00 | 0.00 | 14 | 1004.5 |
| 20260508220340 | 77 | 0 | 11.0 | 26.0 | 0.00 | 0.00 | 0.00 | 14 | 1004.5 |
| 20260508215333 | 77 | 0 | 11.0 | 26.0 | 0.00 | 0.00 | 0.00 | 15 | 1004.6 |
| 20260508214355 | 78 | 0 | 9.0 | 25.0 | 0.00 | 0.00 | 0.00 | 15 | 1004.7 |
| 20260508213346 | 77 | 341 | 13.0 | 25.0 | 0.00 | 0.00 | 0.00 | 16 | 1004.9 |
| 20260508212327 | 76 | 0 | 13.0 | 21.0 | 0.00 | 0.00 | 0.00 | 16 | 1005.0 |
| 20260508211330 | 76 | 0 | 13.0 | 21.0 | 0.00 | 0.00 | 0.00 | 18 | 1005.1 |
| 20260508210304 | 77 | 0 | 10.0 | 30.0 | 0.00 | 0.00 | 0.00 | 17 | 1005.2 |
| 20260508205318 | 76 | 0 | 10.0 | 30.0 | 0.00 | 0.00 | 0.00 | 18 | 1005.4 |
| 20260508204300 | 76 | 330 | 11.0 | 23.0 | 0.00 | 0.00 | 0.00 | 18 | 1005.5 |
| 20260508202050 | 76 | 0 | 9.0 | 19.0 | 0.00 | 0.00 | 0.00 | 18 | 1005.8 |
| 20260508195927 | 75 | 0 | 8.0 | 26.0 | 0.00 | 0.00 | 0.00 | 17 | 1006.0 |
| 20260508194910 | 75 | 0 | 9.0 | 26.0 | 0.00 | 0.00 | 0.00 | 17 | 1006.1 |
| 20260508193911 | 76 | 271 | 13.0 | 19.0 | 0.00 | 0.00 | 0.00 | 17 | 1006.1 |
| 20260508192922 | 76 | 0 | 11.0 | 25.0 | 0.00 | 0.00 | 0.00 | 17 | 1006.2 |
| 20260508191920 | 75 | 344 | 13.0 | 25.0 | 0.00 | 0.00 | 0.00 | 17 | 1006.2 |
| 20260508190944 | 74 | 0 | 3.0 | 11.0 | 0.00 | 0.00 | 0.00 | 19 | 1006.2 |
| 20260508185920 | 74 | 241 | 8.0 | 21.0 | 0.00 | 0.00 | 0.00 | 19 | 1006.4 |
| 20260508184854 | 74 | 0 | 4.0 | 16.0 | 0.00 | 0.00 | 0.00 | 19 | 1006.7 |
| 20260508183848 | 73 | 274 | 13.0 | 24.0 | 0.00 | 0.00 | 0.00 | 19 | 1006.9 |
| 20260508182854 | 73 | 347 | 0.0 | 15.0 | 0.00 | 0.00 | 0.00 | 20 | 1007.0 |
| 20260508181850 | 72 | 210 | 6.0 | 19.0 | 0.00 | 0.00 | 0.00 | 20 | 1007.3 |
| 20260508180827 | 72 | 0 | 8.0 | 16.0 | 0.00 | 0.00 | 0.00 | 20 | 1007.4 |
| 20260508175846 | 72 | 0 | 4.0 | 11.0 | 0.00 | 0.00 | 0.00 | 21 | 1007.5 |
| 20260508174837 | 71 | 272 | 7.0 | 17.0 | 0.00 | 0.00 | 0.00 | 21 | 1007.7 |
| 20260508173810 | 71 | 0 | 1.0 | 11.0 | 0.00 | 0.00 | 0.00 | 21 | 1007.9 |
| 20260508172739 | 71 | 0 | 9.0 | 15.0 | 0.00 | 0.00 | 0.00 | 20 | 1008.1 |
| 20260508170700 | 71 | 267 | 10.0 | 19.0 | 0.00 | 0.00 | 0.00 | 20 | 1008.3 |
| 20260508165718 | 70 | 0 | 4.0 | 19.0 | 0.00 | 0.00 | 0.00 | 21 | 1008.4 |
| 20260508164742 | 70 | 271 | 10.0 | 19.0 | 0.00 | 0.00 | 0.00 | 22 | 1008.7 |
| 20260508163717 | 70 | 0 | 8.0 | 19.0 | 0.00 | 0.00 | 0.00 | 21 | 1008.7 |
| 20260508162713 | 70 | 0 | 6.0 | 19.0 | 0.00 | 0.00 | 0.00 | 21 | 1008.8 |
| 20260508161655 | 68 | 343 | 7.0 | 16.0 | 0.00 | 0.00 | 0.00 | 22 | 1008.8 |
| 20260508160630 | 68 | 343 | 4.0 | 16.0 | 0.00 | 0.00 | 0.00 | 22 | 1009.0 |
| 20260508155620 | 67 | 0 | 6.0 | 15.0 | 0.00 | 0.00 | 0.00 | 22 | 1009.1 |
| 20260508154638 | 67 | 0 | 6.0 | 12.0 | 0.00 | 0.00 | 0.00 | 22 | 1009.1 |
| 20260508153653 | 67 | 331 | 3.0 | 13.0 | 0.00 | 0.00 | 0.00 | 22 | 1009.3 |
| 20260508152634 | 66 | 0 | 4.0 | 11.0 | 0.00 | 0.00 | 0.00 | 23 | 1009.3 |
| 20260508150539 | 65 | 0 | 1.0 | 7.0 | 0.00 | 0.00 | 0.00 | 24 | 1009.6 |
| 20260508145511 | 64 | 0 | 1.0 | 11.0 | 0.00 | 0.00 | 0.00 | 25 | 1009.8 |
| 20260508144505 | 64 | 0 | 0.0 | 0.0 | 0.00 | 0.00 | 0.00 | 26 | 1009.8 |
| 20260508143449 | 63 | 0 | 0.0 | 8.0 | 0.00 | 0.00 | 0.00 | 25 | 1009.9 |